KLBT

Lumberton Regional Airport

Lumberton, North Carolina, USA
METAR KLBT 171554Z AUTO 21008KT 10SM FEW041 31/24 A3015 RMK AO2 SLP206 T03110239
Observed Flight Rules
Aug-17 @ 15:54 UTC (57 minutes ago) Visual Flight Rules
Wind Visibility Clouds
210° at 8 knots 10 miles
  • Few at 4,100' AGL
Temperatures Readings
Current 31°C / 88°F
Dewpoint 24°C / 75°F
Humidity 66%
Altimeter 30.15" Hg
Pressure 1020.6 hPa
Elevation 37
METAR KLBT 171554Z AUTO 21008KT 10SM FEW041 31/24 A3015 RMK AO2 SLP206 T03110239
Observed Flight Rules
Aug-17 @ 15:54 UTC
(57 minutes ago)
VFR
Wind Visibility
210° at 8 knots 10 miles
Clouds
  • Few at 4,100' AGL
Temperature Dewpoint
31°C / 88°F 24°C / 75°F
Humidity Altimeter Pressure
66% 30.15" Hg 1020.6 hPa